sensor_id;sensor_type;location;lat;lon;timestamp;temperature;humidity
6824;DHT22;58633;49.470;11.004;2023-06-14T00:00:47;19.70;42.70
6824;DHT22;58633;49.470;11.004;2023-06-14T00:03:14;19.30;42.50
6824;DHT22;58633;49.470;11.004;2023-06-14T00:05:43;19.50;42.80
6824;DHT22;58633;49.470;11.004;2023-06-14T00:08:09;19.30;42.80
6824;DHT22;58633;49.470;11.004;2023-06-14T00:10:38;19.30;42.90
6824;DHT22;58633;49.470;11.004;2023-06-14T00:13:06;19.40;43.00
6824;DHT22;58633;49.470;11.004;2023-06-14T00:15:35;19.50;43.20
6824;DHT22;58633;49.470;11.004;2023-06-14T00:18:01;19.30;43.00
6824;DHT22;58633;49.470;11.004;2023-06-14T00:20:28;19.40;43.30
6824;DHT22;58633;49.470;11.004;2023-06-14T00:22:54;19.10;43.60
6824;DHT22;58633;49.470;11.004;2023-06-14T00:25:23;19.20;43.90
6824;DHT22;58633;49.470;11.004;2023-06-14T00:27:52;19.10;44.30
6824;DHT22;58633;49.470;11.004;2023-06-14T00:30:19;19.10;44.60
6824;DHT22;58633;49.470;11.004;2023-06-14T00:32:45;19.10;44.70
6824;DHT22;58633;49.470;11.004;2023-06-14T00:35:11;19.00;44.80
6824;DHT22;58633;49.470;11.004;2023-06-14T00:37:37;19.10;44.90
6824;DHT22;58633;49.470;11.004;2023-06-14T00:40:03;19.10;44.80
6824;DHT22;58633;49.470;11.004;2023-06-14T00:42:29;19.10;44.60
6824;DHT22;58633;49.470;11.004;2023-06-14T00:44:55;18.70;44.30
6824;DHT22;58633;49.470;11.004;2023-06-14T00:47:21;18.90;44.60
6824;DHT22;58633;49.470;11.004;2023-06-14T00:49:47;18.80;44.50
6824;DHT22;58633;49.470;11.004;2023-06-14T00:52:13;18.90;44.60
6824;DHT22;58633;49.470;11.004;2023-06-14T00:54:40;19.00;44.70
6824;DHT22;58633;49.470;11.004;2023-06-14T00:57:06;18.90;44.60
6824;DHT22;58633;49.470;11.004;2023-06-14T00:59:33;18.70;44.60
6824;DHT22;58633;49.470;11.004;2023-06-14T01:04:24;18.40;44.30
6824;DHT22;58633;49.470;11.004;2023-06-14T01:07:05;18.40;44.50
6824;DHT22;58633;49.470;11.004;2023-06-14T01:12:35;18.70;45.30
6824;DHT22;58633;49.470;11.004;2023-06-14T01:15:02;18.50;45.30
6824;DHT22;58633;49.470;11.004;2023-06-14T01:17:29;18.30;45.30
6824;DHT22;58633;49.470;11.004;2023-06-14T01:20:06;18.60;45.60
6824;DHT22;58633;49.470;11.004;2023-06-14T01:22:35;18.40;46.00
6824;DHT22;58633;49.470;11.004;2023-06-14T01:25:01;18.20;45.80
6824;DHT22;58633;49.470;11.004;2023-06-14T01:27:27;17.90;45.70
6824;DHT22;58633;49.470;11.004;2023-06-14T01:29:58;18.10;46.00
6824;DHT22;58633;49.470;11.004;2023-06-14T01:32:26;18.40;46.30
6824;DHT22;58633;49.470;11.004;2023-06-14T01:34:52;18.20;46.20
6824;DHT22;58633;49.470;11.004;2023-06-14T01:37:19;18.10;46.10
6824;DHT22;58633;49.470;11.004;2023-06-14T01:39:45;18.20;46.30
6824;DHT22;58633;49.470;11.004;2023-06-14T01:42:13;18.10;46.30
6824;DHT22;58633;49.470;11.004;2023-06-14T01:44:40;18.10;46.40
6824;DHT22;58633;49.470;11.004;2023-06-14T01:47:07;17.90;46.20
6824;DHT22;58633;49.470;11.004;2023-06-14T01:49:34;18.00;46.30
6824;DHT22;58633;49.470;11.004;2023-06-14T01:52:00;18.10;46.20
6824;DHT22;58633;49.470;11.004;2023-06-14T01:54:26;18.10;46.30
6824;DHT22;58633;49.470;11.004;2023-06-14T01:56:52;18.00;46.30
6824;DHT22;58633;49.470;11.004;2023-06-14T02:01:44;18.00;46.80
6824;DHT22;58633;49.470;11.004;2023-06-14T02:04:11;17.60;46.70
6824;DHT22;58633;49.470;11.004;2023-06-14T02:06:37;18.00;47.10
6824;DHT22;58633;49.470;11.004;2023-06-14T02:09:02;18.00;47.20
6824;DHT22;58633;49.470;11.004;2023-06-14T02:11:28;17.70;46.90
6824;DHT22;58633;49.470;11.004;2023-06-14T02:13:54;17.80;47.00
6824;DHT22;58633;49.470;11.004;2023-06-14T02:16:20;17.70;47.10
6824;DHT22;58633;49.470;11.004;2023-06-14T02:18:46;17.40;46.90
6824;DHT22;58633;49.470;11.004;2023-06-14T02:21:12;17.50;47.00
6824;DHT22;58633;49.470;11.004;2023-06-14T02:23:38;17.50;47.00
6824;DHT22;58633;49.470;11.004;2023-06-14T02:26:03;17.50;47.20
6824;DHT22;58633;49.470;11.004;2023-06-14T02:28:29;17.50;47.00
6824;DHT22;58633;49.470;11.004;2023-06-14T02:30:54;17.50;47.00
6824;DHT22;58633;49.470;11.004;2023-06-14T02:33:20;17.50;47.10
6824;DHT22;58633;49.470;11.004;2023-06-14T02:35:47;17.40;47.10
6824;DHT22;58633;49.470;11.004;2023-06-14T02:38:12;17.50;47.20
6824;DHT22;58633;49.470;11.004;2023-06-14T02:43:04;17.40;47.20
6824;DHT22;58633;49.470;11.004;2023-06-14T02:45:30;17.50;47.30
6824;DHT22;58633;49.470;11.004;2023-06-14T02:50:21;17.70;47.60
6824;DHT22;58633;49.470;11.004;2023-06-14T02:55:15;17.30;47.40
6824;DHT22;58633;49.470;11.004;2023-06-14T02:57:40;17.30;47.60
6824;DHT22;58633;49.470;11.004;2023-06-14T03:00:07;17.10;47.50
6824;DHT22;58633;49.470;11.004;2023-06-14T03:02:38;17.00;47.50
6824;DHT22;58633;49.470;11.004;2023-06-14T03:05:04;17.20;47.90
6824;DHT22;58633;49.470;11.004;2023-06-14T03:07:31;16.80;47.60
6824;DHT22;58633;49.470;11.004;2023-06-14T03:09:57;16.80;47.80
6824;DHT22;58633;49.470;11.004;2023-06-14T03:12:23;16.90;48.10
6824;DHT22;58633;49.470;11.004;2023-06-14T03:14:49;17.00;48.40
6824;DHT22;58633;49.470;11.004;2023-06-14T03:17:16;16.90;48.60
6824;DHT22;58633;49.470;11.004;2023-06-14T03:19:43;16.90;48.80
6824;DHT22;58633;49.470;11.004;2023-06-14T03:22:08;16.70;48.70
6824;DHT22;58633;49.470;11.004;2023-06-14T03:24:34;16.70;49.00
6824;DHT22;58633;49.470;11.004;2023-06-14T03:27:03;16.70;49.20
6824;DHT22;58633;49.470;11.004;2023-06-14T03:29:29;16.50;49.00
6824;DHT22;58633;49.470;11.004;2023-06-14T03:31:59;16.70;49.30
6824;DHT22;58633;49.470;11.004;2023-06-14T03:34:25;16.60;49.20
6824;DHT22;58633;49.470;11.004;2023-06-14T03:39:18;16.80;49.40
6824;DHT22;58633;49.470;11.004;2023-06-14T03:41:43;16.50;49.30
6824;DHT22;58633;49.470;11.004;2023-06-14T03:44:09;16.20;49.00
6824;DHT22;58633;49.470;11.004;2023-06-14T03:46:34;16.60;49.50
6824;DHT22;58633;49.470;11.004;2023-06-14T03:49:00;16.60;49.60
6824;DHT22;58633;49.470;11.004;2023-06-14T03:53:54;16.50;49.70
6824;DHT22;58633;49.470;11.004;2023-06-14T03:56:21;16.60;49.80
6824;DHT22;58633;49.470;11.004;2023-06-14T03:58:46;16.50;49.70
6824;DHT22;58633;49.470;11.004;2023-06-14T04:01:12;16.40;49.80
6824;DHT22;58633;49.470;11.004;2023-06-14T04:03:38;16.40;50.00
6824;DHT22;58633;49.470;11.004;2023-06-14T04:08:31;16.30;50.30
6824;DHT22;58633;49.470;11.004;2023-06-14T04:10:57;16.20;50.50
6824;DHT22;58633;49.470;11.004;2023-06-14T04:13:22;16.30;50.60
6824;DHT22;58633;49.470;11.004;2023-06-14T04:15:48;16.60;51.00
6824;DHT22;58633;49.470;11.004;2023-06-14T04:18:13;16.40;50.80
6824;DHT22;58633;49.470;11.004;2023-06-14T04:20:39;16.30;50.80
6824;DHT22;58633;49.470;11.004;2023-06-14T04:25:38;16.40;50.80
6824;DHT22;58633;49.470;11.004;2023-06-14T04:30:30;16.50;50.90
6824;DHT22;58633;49.470;11.004;2023-06-14T04:32:56;16.50;50.90
6824;DHT22;58633;49.470;11.004;2023-06-14T04:35:22;16.70;51.00
6824;DHT22;58633;49.470;11.004;2023-06-14T04:37:49;16.60;50.90
6824;DHT22;58633;49.470;11.004;2023-06-14T04:40:15;16.60;51.00
6824;DHT22;58633;49.470;11.004;2023-06-14T04:42:40;17.00;51.00
6824;DHT22;58633;49.470;11.004;2023-06-14T04:45:10;17.10;50.70
6824;DHT22;58633;49.470;11.004;2023-06-14T04:47:36;17.00;50.30
6824;DHT22;58633;49.470;11.004;2023-06-14T04:50:03;17.00;50.20
6824;DHT22;58633;49.470;11.004;2023-06-14T04:52:29;17.10;50.10
6824;DHT22;58633;49.470;11.004;2023-06-14T04:54:56;17.30;50.10
6824;DHT22;58633;49.470;11.004;2023-06-14T04:57:22;17.70;50.10
6824;DHT22;58633;49.470;11.004;2023-06-14T05:02:13;17.50;49.50
6824;DHT22;58633;49.470;11.004;2023-06-14T05:04:39;17.60;49.30
6824;DHT22;58633;49.470;11.004;2023-06-14T05:07:07;17.60;49.10
6824;DHT22;58633;49.470;11.004;2023-06-14T05:09:33;17.70;49.10
6824;DHT22;58633;49.470;11.004;2023-06-14T05:14:25;17.80;49.10
6824;DHT22;58633;49.470;11.004;2023-06-14T05:16:52;17.90;49.20
6824;DHT22;58633;49.470;11.004;2023-06-14T05:19:17;17.70;49.00
6824;DHT22;58633;49.470;11.004;2023-06-14T05:21:43;17.70;49.00
6824;DHT22;58633;49.470;11.004;2023-06-14T05:26:36;17.70;49.20
6824;DHT22;58633;49.470;11.004;2023-06-14T05:29:02;17.90;49.40
6824;DHT22;58633;49.470;11.004;2023-06-14T05:31:28;17.80;49.90
6824;DHT22;58633;49.470;11.004;2023-06-14T05:33:54;17.70;49.20
6824;DHT22;58633;49.470;11.004;2023-06-14T05:36:20;17.80;49.40
6824;DHT22;58633;49.470;11.004;2023-06-14T05:38:49;18.20;49.70
6824;DHT22;58633;49.470;11.004;2023-06-14T05:41:16;18.00;49.40
6824;DHT22;58633;49.470;11.004;2023-06-14T05:43:41;18.10;49.40
6824;DHT22;58633;49.470;11.004;2023-06-14T05:46:06;18.40;49.60
6824;DHT22;58633;49.470;11.004;2023-06-14T05:48:32;18.60;49.90
6824;DHT22;58633;49.470;11.004;2023-06-14T05:50:58;18.40;49.70
6824;DHT22;58633;49.470;11.004;2023-06-14T05:53:24;18.20;49.50
6824;DHT22;58633;49.470;11.004;2023-06-14T05:55:50;18.30;49.40
6824;DHT22;58633;49.470;11.004;2023-06-14T05:58:20;18.10;49.20
6824;DHT22;58633;49.470;11.004;2023-06-14T06:00:46;18.70;49.70
6824;DHT22;58633;49.470;11.004;2023-06-14T06:03:11;18.40;49.50
6824;DHT22;58633;49.470;11.004;2023-06-14T06:05:38;18.70;49.80
6824;DHT22;58633;49.470;11.004;2023-06-14T06:08:04;18.50;49.50
6824;DHT22;58633;49.470;11.004;2023-06-14T06:10:29;18.80;49.70
6824;DHT22;58633;49.470;11.004;2023-06-14T06:12:55;18.80;49.70
6824;DHT22;58633;49.470;11.004;2023-06-14T06:15:20;18.70;49.60
6824;DHT22;58633;49.470;11.004;2023-06-14T06:17:46;18.90;49.90
6824;DHT22;58633;49.470;11.004;2023-06-14T06:20:12;18.80;49.70
6824;DHT22;58633;49.470;11.004;2023-06-14T06:22:38;19.00;50.00
6824;DHT22;58633;49.470;11.004;2023-06-14T06:25:03;18.90;49.80
6824;DHT22;58633;49.470;11.004;2023-06-14T06:27:29;19.00;49.90
6824;DHT22;58633;49.470;11.004;2023-06-14T06:29:55;19.00;49.70
6824;DHT22;58633;49.470;11.004;2023-06-14T06:32:21;19.00;49.60
6824;DHT22;58633;49.470;11.004;2023-06-14T06:34:47;19.30;49.60
6824;DHT22;58633;49.470;11.004;2023-06-14T06:37:13;19.40;49.20
6824;DHT22;58633;49.470;11.004;2023-06-14T06:39:39;19.10;48.90
6824;DHT22;58633;49.470;11.004;2023-06-14T06:42:04;19.50;48.90
6824;DHT22;58633;49.470;11.004;2023-06-14T06:44:30;19.70;48.90
6824;DHT22;58633;49.470;11.004;2023-06-14T06:46:57;19.50;48.70
6824;DHT22;58633;49.470;11.004;2023-06-14T06:49:23;19.70;48.70
6824;DHT22;58633;49.470;11.004;2023-06-14T06:52:05;19.60;48.50
6824;DHT22;58633;49.470;11.004;2023-06-14T06:54:31;19.80;48.50
6824;DHT22;58633;49.470;11.004;2023-06-14T06:56:57;19.80;48.50
6824;DHT22;58633;49.470;11.004;2023-06-14T06:59:23;19.30;48.00
6824;DHT22;58633;49.470;11.004;2023-06-14T07:01:49;19.80;48.20
6824;DHT22;58633;49.470;11.004;2023-06-14T07:04:14;20.00;48.20
6824;DHT22;58633;49.470;11.004;2023-06-14T07:06:42;20.10;48.00
6824;DHT22;58633;49.470;11.004;2023-06-14T07:09:07;20.20;48.00
6824;DHT22;58633;49.470;11.004;2023-06-14T07:11:40;20.30;48.00
6824;DHT22;58633;49.470;11.004;2023-06-14T07:16:32;20.30;47.80
6824;DHT22;58633;49.470;11.004;2023-06-14T07:18:58;20.60;47.90
6824;DHT22;58633;49.470;11.004;2023-06-14T07:21:23;20.30;47.50
6824;DHT22;58633;49.470;11.004;2023-06-14T07:23:51;20.30;48.00
6824;DHT22;58633;49.470;11.004;2023-06-14T07:26:16;20.30;47.50
6824;DHT22;58633;49.470;11.004;2023-06-14T07:28:42;20.70;47.70
6824;DHT22;58633;49.470;11.004;2023-06-14T07:31:10;20.40;47.50
6824;DHT22;58633;49.470;11.004;2023-06-14T07:33:36;20.50;47.50
6824;DHT22;58633;49.470;11.004;2023-06-14T07:36:02;20.60;47.50
6824;DHT22;58633;49.470;11.004;2023-06-14T07:38:28;20.50;47.30
6824;DHT22;58633;49.470;11.004;2023-06-14T07:43:19;20.50;47.20
6824;DHT22;58633;49.470;11.004;2023-06-14T07:45:45;20.70;47.30
6824;DHT22;58633;49.470;11.004;2023-06-14T07:48:11;20.60;47.20
6824;DHT22;58633;49.470;11.004;2023-06-14T07:50:36;20.60;47.10
6824;DHT22;58633;49.470;11.004;2023-06-14T07:53:02;20.80;47.10
6824;DHT22;58633;49.470;11.004;2023-06-14T07:55:27;20.80;46.80
6824;DHT22;58633;49.470;11.004;2023-06-14T07:57:54;20.70;46.60
6824;DHT22;58633;49.470;11.004;2023-06-14T08:00:20;20.70;46.40
6824;DHT22;58633;49.470;11.004;2023-06-14T08:02:46;20.90;46.20
6824;DHT22;58633;49.470;11.004;2023-06-14T08:05:12;20.80;45.90
6824;DHT22;58633;49.470;11.004;2023-06-14T08:07:39;21.30;46.00
6824;DHT22;58633;49.470;11.004;2023-06-14T08:10:06;21.50;45.70
6824;DHT22;58633;49.470;11.004;2023-06-14T08:12:32;21.40;45.40
6824;DHT22;58633;49.470;11.004;2023-06-14T08:14:58;21.50;45.00
6824;DHT22;58633;49.470;11.004;2023-06-14T08:17:24;21.60;45.00
6824;DHT22;58633;49.470;11.004;2023-06-14T08:19:50;21.20;44.50
6824;DHT22;58633;49.470;11.004;2023-06-14T08:24:43;21.30;44.30
6824;DHT22;58633;49.470;11.004;2023-06-14T08:27:09;21.50;44.60
6824;DHT22;58633;49.470;11.004;2023-06-14T08:29:35;21.40;44.40
6824;DHT22;58633;49.470;11.004;2023-06-14T08:32:01;21.50;44.30
6824;DHT22;58633;49.470;11.004;2023-06-14T08:34:27;21.40;44.10
6824;DHT22;58633;49.470;11.004;2023-06-14T08:39:18;21.30;43.80
6824;DHT22;58633;49.470;11.004;2023-06-14T08:41:46;21.80;44.10
6824;DHT22;58633;49.470;11.004;2023-06-14T08:46:38;21.70;44.00
6824;DHT22;58633;49.470;11.004;2023-06-14T08:49:04;21.80;44.00
6824;DHT22;58633;49.470;11.004;2023-06-14T08:51:32;21.90;44.00
6824;DHT22;58633;49.470;11.004;2023-06-14T08:54:00;21.80;43.80
6824;DHT22;58633;49.470;11.004;2023-06-14T08:56:28;21.90;43.70
6824;DHT22;58633;49.470;11.004;2023-06-14T08:58:55;21.70;43.50
6824;DHT22;58633;49.470;11.004;2023-06-14T09:03:49;21.90;43.60
6824;DHT22;58633;49.470;11.004;2023-06-14T09:06:15;21.90;43.50
6824;DHT22;58633;49.470;11.004;2023-06-14T09:08:45;22.10;43.50
6824;DHT22;58633;49.470;11.004;2023-06-14T09:11:16;22.10;43.20
6824;DHT22;58633;49.470;11.004;2023-06-14T09:13:44;22.60;43.30
6824;DHT22;58633;49.470;11.004;2023-06-14T09:16:10;22.20;42.70
6824;DHT22;58633;49.470;11.004;2023-06-14T09:18:41;22.40;42.60
6824;DHT22;58633;49.470;11.004;2023-06-14T09:21:09;22.50;42.60
6824;DHT22;58633;49.470;11.004;2023-06-14T09:23:38;22.60;42.40
6824;DHT22;58633;49.470;11.004;2023-06-14T09:31:02;23.20;42.40
6824;DHT22;58633;49.470;11.004;2023-06-14T09:33:28;23.10;42.20
6824;DHT22;58633;49.470;11.004;2023-06-14T09:35:56;23.20;41.90
6824;DHT22;58633;49.470;11.004;2023-06-14T09:38:24;23.20;41.90
6824;DHT22;58633;49.470;11.004;2023-06-14T09:40:50;23.20;42.00
6824;DHT22;58633;49.470;11.004;2023-06-14T09:43:16;23.40;42.00
6824;DHT22;58633;49.470;11.004;2023-06-14T09:45:44;23.50;41.70
6824;DHT22;58633;49.470;11.004;2023-06-14T09:48:11;24.00;41.40
6824;DHT22;58633;49.470;11.004;2023-06-14T09:53:11;24.00;40.50
6824;DHT22;58633;49.470;11.004;2023-06-14T09:58:05;24.20;40.30
6824;DHT22;58633;49.470;11.004;2023-06-14T10:00:32;24.40;40.30
6824;DHT22;58633;49.470;11.004;2023-06-14T10:03:05;24.50;39.70
6824;DHT22;58633;49.470;11.004;2023-06-14T10:05:33;24.50;39.40
6824;DHT22;58633;49.470;11.004;2023-06-14T10:08:04;24.30;38.70
6824;DHT22;58633;49.470;11.004;2023-06-14T10:15:52;24.50;38.50
6824;DHT22;58633;49.470;11.004;2023-06-14T10:18:49;24.50;38.30
6824;DHT22;58633;49.470;11.004;2023-06-14T10:24:05;24.60;38.30
6824;DHT22;58633;49.470;11.004;2023-06-14T10:28:59;24.30;38.30
6824;DHT22;58633;49.470;11.004;2023-06-14T10:31:48;25.60;39.00
6824;DHT22;58633;49.470;11.004;2023-06-14T10:34:34;24.70;38.30
6824;DHT22;58633;49.470;11.004;2023-06-14T10:37:04;24.80;38.10
6824;DHT22;58633;49.470;11.004;2023-06-14T10:39:30;25.50;38.30
6824;DHT22;58633;49.470;11.004;2023-06-14T10:41:57;25.50;38.20
6824;DHT22;58633;49.470;11.004;2023-06-14T10:46:52;25.70;37.40
6824;DHT22;58633;49.470;11.004;2023-06-14T10:49:40;26.00;37.00
6824;DHT22;58633;49.470;11.004;2023-06-14T10:52:08;25.70;36.70
6824;DHT22;58633;49.470;11.004;2023-06-14T10:54:55;25.90;36.80
6824;DHT22;58633;49.470;11.004;2023-06-14T11:02:26;26.20;36.00
6824;DHT22;58633;49.470;11.004;2023-06-14T11:07:38;26.30;35.40
6824;DHT22;58633;49.470;11.004;2023-06-14T11:12:38;26.40;35.10
6824;DHT22;58633;49.470;11.004;2023-06-14T11:15:05;26.30;35.20
6824;DHT22;58633;49.470;11.004;2023-06-14T11:17:33;26.40;34.80
6824;DHT22;58633;49.470;11.004;2023-06-14T11:20:17;26.40;34.40
6824;DHT22;58633;49.470;11.004;2023-06-14T11:25:10;26.60;34.50
6824;DHT22;58633;49.470;11.004;2023-06-14T11:27:36;26.90;34.50
6824;DHT22;58633;49.470;11.004;2023-06-14T11:30:01;27.00;33.90
6824;DHT22;58633;49.470;11.004;2023-06-14T11:32:27;27.30;33.80
6824;DHT22;58633;49.470;11.004;2023-06-14T11:34:53;27.60;34.00
6824;DHT22;58633;49.470;11.004;2023-06-14T11:42:17;26.70;34.00
6824;DHT22;58633;49.470;11.004;2023-06-14T11:44:46;27.30;34.70
6824;DHT22;58633;49.470;11.004;2023-06-14T11:52:04;26.80;34.20
6824;DHT22;58633;49.470;11.004;2023-06-14T11:54:32;26.90;34.20
6824;DHT22;58633;49.470;11.004;2023-06-14T11:59:24;27.20;34.10
6824;DHT22;58633;49.470;11.004;2023-06-14T12:04:26;27.10;33.80
6824;DHT22;58633;49.470;11.004;2023-06-14T12:06:52;27.40;34.00
6824;DHT22;58633;49.470;11.004;2023-06-14T12:14:17;27.60;33.30
6824;DHT22;58633;49.470;11.004;2023-06-14T12:19:17;27.20;33.00
6824;DHT22;58633;49.470;11.004;2023-06-14T12:21:46;27.60;32.70
6824;DHT22;58633;49.470;11.004;2023-06-14T12:29:06;33.80;28.20
6824;DHT22;58633;49.470;11.004;2023-06-14T12:41:21;32.50;27.80
6824;DHT22;58633;49.470;11.004;2023-06-14T12:43:47;30.90;28.70
6824;DHT22;58633;49.470;11.004;2023-06-14T12:55:57;28.30;31.10
6824;DHT22;58633;49.470;11.004;2023-06-14T12:58:22;28.00;30.70
6824;DHT22;58633;49.470;11.004;2023-06-14T13:00:49;28.10;31.00
6824;DHT22;58633;49.470;11.004;2023-06-14T13:05:40;28.00;31.20
6824;DHT22;58633;49.470;11.004;2023-06-14T13:08:07;27.70;31.20
6824;DHT22;58633;49.470;11.004;2023-06-14T13:10:34;27.90;31.30
6824;DHT22;58633;49.470;11.004;2023-06-14T13:15:26;27.90;31.30
6824;DHT22;58633;49.470;11.004;2023-06-14T13:17:53;27.90;31.50
6824;DHT22;58633;49.470;11.004;2023-06-14T13:30:04;28.00;31.20
6824;DHT22;58633;49.470;11.004;2023-06-14T13:34:57;28.00;31.20
6824;DHT22;58633;49.470;11.004;2023-06-14T13:39:49;28.80;30.80
6824;DHT22;58633;49.470;11.004;2023-06-14T13:44:40;29.20;30.60
6824;DHT22;58633;49.470;11.004;2023-06-14T13:47:06;29.40;31.10
6824;DHT22;58633;49.470;11.004;2023-06-14T13:54:26;30.10;29.70
6824;DHT22;58633;49.470;11.004;2023-06-14T14:04:10;30.20;29.20
6824;DHT22;58633;49.470;11.004;2023-06-14T14:09:02;30.90;28.90
6824;DHT22;58633;49.470;11.004;2023-06-14T14:21:15;31.80;28.40
6824;DHT22;58633;49.470;11.004;2023-06-14T14:33:25;34.00;27.60
6824;DHT22;58633;49.470;11.004;2023-06-14T14:35:50;33.70;27.40
6824;DHT22;58633;49.470;11.004;2023-06-14T14:38:16;33.70;27.20
6824;DHT22;58633;49.470;11.004;2023-06-14T14:43:08;33.10;27.60
6824;DHT22;58633;49.470;11.004;2023-06-14T14:45:34;33.10;27.70
6824;DHT22;58633;49.470;11.004;2023-06-14T14:48:00;33.00;27.50
6824;DHT22;58633;49.470;11.004;2023-06-14T14:50:26;32.70;27.50
6824;DHT22;58633;49.470;11.004;2023-06-14T14:57:45;32.90;27.20
6824;DHT22;58633;49.470;11.004;2023-06-14T15:00:11;33.00;27.20
6824;DHT22;58633;49.470;11.004;2023-06-14T15:02:37;32.90;26.80
6824;DHT22;58633;49.470;11.004;2023-06-14T15:14:50;32.80;26.60
6824;DHT22;58633;49.470;11.004;2023-06-14T15:19:44;32.40;26.80
6824;DHT22;58633;49.470;11.004;2023-06-14T15:22:10;32.20;26.70
6824;DHT22;58633;49.470;11.004;2023-06-14T15:24:35;32.20;26.80
6824;DHT22;58633;49.470;11.004;2023-06-14T15:27:01;31.80;26.90
6824;DHT22;58633;49.470;11.004;2023-06-14T15:46:30;32.10;27.20
6824;DHT22;58633;49.470;11.004;2023-06-14T15:51:21;32.10;27.00
6824;DHT22;58633;49.470;11.004;2023-06-14T15:56:13;32.20;27.00
6824;DHT22;58633;49.470;11.004;2023-06-14T16:03:31;32.00;26.80
6824;DHT22;58633;49.470;11.004;2023-06-14T16:15:40;31.00;27.30
6824;DHT22;58633;49.470;11.004;2023-06-14T16:20:31;30.70;27.60
6824;DHT22;58633;49.470;11.004;2023-06-14T16:25:23;29.90;27.90
6824;DHT22;58633;49.470;11.004;2023-06-14T16:30:15;29.90;28.30
6824;DHT22;58633;49.470;11.004;2023-06-14T16:32:41;29.10;28.20
6824;DHT22;58633;49.470;11.004;2023-06-14T16:35:07;29.00;28.30
6824;DHT22;58633;49.470;11.004;2023-06-14T16:37:32;29.30;28.50
6824;DHT22;58633;49.470;11.004;2023-06-14T16:39:58;29.00;28.50
6824;DHT22;58633;49.470;11.004;2023-06-14T16:42:23;28.80;28.60
6824;DHT22;58633;49.470;11.004;2023-06-14T16:47:14;28.40;28.90
6824;DHT22;58633;49.470;11.004;2023-06-14T16:49:40;28.60;29.10
6824;DHT22;58633;49.470;11.004;2023-06-14T16:52:06;28.60;29.30
6824;DHT22;58633;49.470;11.004;2023-06-14T16:54:31;28.40;29.30
6824;DHT22;58633;49.470;11.004;2023-06-14T16:56:57;28.20;29.30
6824;DHT22;58633;49.470;11.004;2023-06-14T16:59:22;28.40;29.50
6824;DHT22;58633;49.470;11.004;2023-06-14T17:01:50;28.10;29.40
6824;DHT22;58633;49.470;11.004;2023-06-14T17:04:17;28.10;29.80
6824;DHT22;58633;49.470;11.004;2023-06-14T17:06:43;28.20;29.90
6824;DHT22;58633;49.470;11.004;2023-06-14T17:09:09;28.10;30.00
6824;DHT22;58633;49.470;11.004;2023-06-14T17:11:35;27.70;29.80
6824;DHT22;58633;49.470;11.004;2023-06-14T17:14:00;28.00;30.00
6824;DHT22;58633;49.470;11.004;2023-06-14T17:16:26;28.10;30.20
6824;DHT22;58633;49.470;11.004;2023-06-14T17:18:52;28.00;30.40
6824;DHT22;58633;49.470;11.004;2023-06-14T17:21:18;27.80;30.50
6824;DHT22;58633;49.470;11.004;2023-06-14T17:23:43;27.60;30.50
6824;DHT22;58633;49.470;11.004;2023-06-14T17:26:09;27.60;30.60
6824;DHT22;58633;49.470;11.004;2023-06-14T17:28:35;27.90;31.00
6824;DHT22;58633;49.470;11.004;2023-06-14T17:33:30;27.30;30.80
6824;DHT22;58633;49.470;11.004;2023-06-14T17:35:55;27.50;31.10
6824;DHT22;58633;49.470;11.004;2023-06-14T17:38:21;27.80;31.60
6824;DHT22;58633;49.470;11.004;2023-06-14T17:40:46;26.90;31.10
6824;DHT22;58633;49.470;11.004;2023-06-14T17:43:12;27.10;31.40
6824;DHT22;58633;49.470;11.004;2023-06-14T17:45:37;27.10;31.50
6824;DHT22;58633;49.470;11.004;2023-06-14T17:48:04;27.00;31.60
6824;DHT22;58633;49.470;11.004;2023-06-14T17:50:29;26.90;31.70
6824;DHT22;58633;49.470;11.004;2023-06-14T17:52:55;27.00;31.90
6824;DHT22;58633;49.470;11.004;2023-06-14T17:55:21;27.10;32.10
6824;DHT22;58633;49.470;11.004;2023-06-14T17:57:47;26.40;31.90
6824;DHT22;58633;49.470;11.004;2023-06-14T18:00:13;26.70;32.10
6824;DHT22;58633;49.470;11.004;2023-06-14T18:02:38;26.60;32.20
6824;DHT22;58633;49.470;11.004;2023-06-14T18:05:04;26.50;32.40
6824;DHT22;58633;49.470;11.004;2023-06-14T18:07:30;26.50;32.50
6824;DHT22;58633;49.470;11.004;2023-06-14T18:09:56;26.30;32.60
6824;DHT22;58633;49.470;11.004;2023-06-14T18:12:21;26.00;32.80
6824;DHT22;58633;49.470;11.004;2023-06-14T18:14:47;26.00;32.90
6824;DHT22;58633;49.470;11.004;2023-06-14T18:17:12;26.10;33.60
6824;DHT22;58633;49.470;11.004;2023-06-14T18:19:38;25.70;33.60
6824;DHT22;58633;49.470;11.004;2023-06-14T18:22:03;25.50;33.70
6824;DHT22;58633;49.470;11.004;2023-06-14T18:26:56;25.70;34.10
6824;DHT22;58633;49.470;11.004;2023-06-14T18:29:22;26.20;34.60
6824;DHT22;58633;49.470;11.004;2023-06-14T18:34:13;25.60;34.80
6824;DHT22;58633;49.470;11.004;2023-06-14T18:36:39;25.10;34.70
6824;DHT22;58633;49.470;11.004;2023-06-14T18:39:05;25.00;34.70
6824;DHT22;58633;49.470;11.004;2023-06-14T18:41:31;25.20;35.30
6824;DHT22;58633;49.470;11.004;2023-06-14T18:43:57;25.20;35.10
6824;DHT22;58633;49.470;11.004;2023-06-14T18:46:24;24.90;35.00
6824;DHT22;58633;49.470;11.004;2023-06-14T18:48:51;25.10;35.10
6824;DHT22;58633;49.470;11.004;2023-06-14T18:51:17;24.90;35.10
6824;DHT22;58633;49.470;11.004;2023-06-14T18:53:42;25.10;35.30
6824;DHT22;58633;49.470;11.004;2023-06-14T18:58:34;24.80;35.40
6824;DHT22;58633;49.470;11.004;2023-06-14T19:00:59;24.50;35.30
6824;DHT22;58633;49.470;11.004;2023-06-14T19:08:20;24.50;35.60
6824;DHT22;58633;49.470;11.004;2023-06-14T19:10:46;24.50;35.70
6824;DHT22;58633;49.470;11.004;2023-06-14T19:18:04;24.70;36.20
6824;DHT22;58633;49.470;11.004;2023-06-14T19:20:31;24.60;36.30
6824;DHT22;58633;49.470;11.004;2023-06-14T19:22:56;24.40;36.20
6824;DHT22;58633;49.470;11.004;2023-06-14T19:25:22;24.40;36.60
6824;DHT22;58633;49.470;11.004;2023-06-14T19:35:07;24.30;36.50
6824;DHT22;58633;49.470;11.004;2023-06-14T19:37:33;24.20;36.60
6824;DHT22;58633;49.470;11.004;2023-06-14T19:39:59;24.20;36.80
6824;DHT22;58633;49.470;11.004;2023-06-14T19:44:51;23.80;36.60
6824;DHT22;58633;49.470;11.004;2023-06-14T19:49:42;23.90;36.90
6824;DHT22;58633;49.470;11.004;2023-06-14T19:52:08;23.80;36.90
6824;DHT22;58633;49.470;11.004;2023-06-14T20:01:51;23.30;37.30
6824;DHT22;58633;49.470;11.004;2023-06-14T20:04:17;23.50;37.50
6824;DHT22;58633;49.470;11.004;2023-06-14T20:09:08;23.40;37.80
6824;DHT22;58633;49.470;11.004;2023-06-14T20:11:39;23.20;37.70
6824;DHT22;58633;49.470;11.004;2023-06-14T20:14:05;23.30;38.00
6824;DHT22;58633;49.470;11.004;2023-06-14T20:16:32;23.20;37.90
6824;DHT22;58633;49.470;11.004;2023-06-14T20:18:58;23.20;38.10
6824;DHT22;58633;49.470;11.004;2023-06-14T20:23:52;23.10;38.30